Houghton, MI

9:41 AM EST on February 23, 2018 (GMT -0500)
Clark Street | | Change Station
Active Advisory: Winter Storm Warning

Elev 643 ft 47.12 °N, 88.55 °W | Updated 17 seconds ago

Overcast
Overcast
30.7 °F
Feels Like 31 °F
N
0.0
Wind Variable Wind from East

Today
High -- | Low -- °F
--% Chance of Precip.
Yesterday
High -- | Low -- °F
Precip. -- in
Pressure 29.96 in
Visibility 3.0 miles
Clouds Scattered Clouds 1900 ft
Mostly Cloudy 2700 ft
Overcast 7500 ft
Windchill 31 °F
Dew Point 30 °F
Humidity 98%
Rainfall 0.00 in
Snow Depth Not available.
7:45 AM 6:30 PM
First Quarter, 53% visible
SPECI KCMX 231417Z AUTO 08006KT 3SM -SN BR SCT019 BKN027 OVC075 M03/M06 A2996 RMK AO2 P0000 T10331056
Pressure 29.96 in
Visibility 3.0 miles
Clouds Scattered Clouds 1900 ft
Mostly Cloudy 2700 ft
Overcast 7500 ft
Windchill 31 °F
Dew Point 30 °F
Humidity 98%
Rainfall 0.00 in
Snow Depth Not available.
7:45 AM 6:30 PM
First Quarter, 53% visible
SPECI KCMX 231417Z AUTO 08006KT 3SM -SN BR SCT019 BKN027 OVC075 M03/M06 A2996 RMK AO2 P0000 T10331056

Get Your Daily Forecast Email!

Thanks for signing up!

Be on the lookout for a verification email in your inbox.

You'll start receiving severe weather alerts in your inbox..

×

10-Day Weather Forecast

Almanac

Astronomy

Feb. 23, 2018 Rise Set
Actual Time
Civil Twilight
Nautical Twilight
Astronomical Twilight
Moon
Length of Visible Light
Length of Day
Tomorrow will be .
, % of the Moon is Illuminated

Today's Extremes

State Highs State Lows

Community

WunderPhotos

Category 6

Welcome to Category 6. This is the collective home for Weather Underground's featured writeups by Dr. Jeff Masters (right), Bob Henson (left), Chris Burt, and other regular contributors.

Nearby

Air Quality

  Air Quality AQ Index Pollutant
Not available.

Snow Depth

Station Depth Elevation

Earthquake Activity

City Distance Mag. Time & Date
Minimum magnitude displayed is 2.5.

Coastal Water Temperatures

Place Temperature

Stations

Nearby Weather Stations

Station Location Temp. Windchill Dew Point Humidity Wind Precip. Elev Updated Type
                   

Watches & Warnings

Winter Storm Warning
Issued: 3:58 AM EST Feb. 23, 2018 – National Weather Service

... Winter Storm Warning remains in effect until 10 am EST this
morning...

* what... heavy snow. Additional snow accumulations of 2 to 4
inches are expected.

* Where... Keweenaw and northern Houghton counties.

* When... until 10 am EST this morning.

* Additional details... plan on difficult travel conditions,
including during the morning commute. The snow will be wet and
heavy, which will make travel and snow removal even more
difficult. Be prepared for significant reductions in visibility
at times.

Precautionary/preparedness actions...

A Winter Storm Warning for snow means severe winter weather
conditions will make travel very hazardous or impossible. If you
must travel, keep an extra flashlight, food and water in your
vehicle in case of an emergency.